sensor_id;sensor_type;location;lat;lon;timestamp;P1;durP1;ratioP1;P2;durP2;ratioP2
18983;SDS011;9626;52.552;13.436;2023-08-31T00:00:42;3.63;;;2.73;;
18983;SDS011;9626;52.552;13.436;2023-08-31T00:03:08;4.30;;;2.37;;
18983;SDS011;9626;52.552;13.436;2023-08-31T00:05:39;2.80;;;2.50;;
18983;SDS011;9626;52.552;13.436;2023-08-31T00:08:06;4.27;;;2.53;;
18983;SDS011;9626;52.552;13.436;2023-08-31T00:10:33;3.17;;;2.80;;
18983;SDS011;9626;52.552;13.436;2023-08-31T00:13:03;2.70;;;2.50;;
18983;SDS011;9626;52.552;13.436;2023-08-31T00:15:30;2.50;;;2.30;;
18983;SDS011;9626;52.552;13.436;2023-08-31T00:17:58;3.03;;;2.70;;
18983;SDS011;9626;52.552;13.436;2023-08-31T00:20:25;3.20;;;2.77;;
18983;SDS011;9626;52.552;13.436;2023-08-31T00:22:52;4.67;;;2.70;;
18983;SDS011;9626;52.552;13.436;2023-08-31T00:25:18;4.07;;;2.63;;
18983;SDS011;9626;52.552;13.436;2023-08-31T00:27:44;3.33;;;2.70;;
18983;SDS011;9626;52.552;13.436;2023-08-31T00:30:14;2.83;;;2.63;;
18983;SDS011;9626;52.552;13.436;2023-08-31T00:32:43;2.93;;;2.47;;
18983;SDS011;9626;52.552;13.436;2023-08-31T00:35:09;2.80;;;2.23;;
18983;SDS011;9626;52.552;13.436;2023-08-31T00:37:35;4.80;;;2.47;;
18983;SDS011;9626;52.552;13.436;2023-08-31T00:40:01;2.30;;;2.10;;
18983;SDS011;9626;52.552;13.436;2023-08-31T00:42:30;3.20;;;2.77;;
18983;SDS011;9626;52.552;13.436;2023-08-31T00:44:56;5.40;;;2.40;;
18983;SDS011;9626;52.552;13.436;2023-08-31T00:47:22;2.43;;;2.23;;
18983;SDS011;9626;52.552;13.436;2023-08-31T00:49:48;2.53;;;2.33;;
18983;SDS011;9626;52.552;13.436;2023-08-31T00:52:15;3.13;;;2.30;;
18983;SDS011;9626;52.552;13.436;2023-08-31T00:54:42;2.40;;;2.20;;
18983;SDS011;9626;52.552;13.436;2023-08-31T00:57:08;2.43;;;2.23;;
18983;SDS011;9626;52.552;13.436;2023-08-31T00:59:35;2.37;;;2.17;;
18983;SDS011;9626;52.552;13.436;2023-08-31T01:02:14;2.93;;;2.10;;
18983;SDS011;9626;52.552;13.436;2023-08-31T01:13:22;2.47;;;2.27;;
18983;SDS011;9626;52.552;13.436;2023-08-31T01:15:51;2.87;;;2.67;;
18983;SDS011;9626;52.552;13.436;2023-08-31T01:18:21;6.17;;;3.83;;
18983;SDS011;9626;52.552;13.436;2023-08-31T01:21:11;3.40;;;2.93;;
18983;SDS011;9626;52.552;13.436;2023-08-31T01:26:19;5.17;;;3.03;;
18983;SDS011;9626;52.552;13.436;2023-08-31T01:28:46;3.77;;;3.03;;
18983;SDS011;9626;52.552;13.436;2023-08-31T01:31:13;3.17;;;2.90;;
18983;SDS011;9626;52.552;13.436;2023-08-31T01:33:41;3.63;;;3.33;;
18983;SDS011;9626;52.552;13.436;2023-08-31T01:36:08;4.10;;;3.70;;
18983;SDS011;9626;52.552;13.436;2023-08-31T01:38:48;5.23;;;3.20;;
18983;SDS011;9626;52.552;13.436;2023-08-31T01:41:21;5.03;;;3.43;;
18983;SDS011;9626;52.552;13.436;2023-08-31T01:43:49;3.83;;;3.53;;
18983;SDS011;9626;52.552;13.436;2023-08-31T01:46:17;3.50;;;3.20;;
18983;SDS011;9626;52.552;13.436;2023-08-31T01:48:43;3.50;;;3.20;;
18983;SDS011;9626;52.552;13.436;2023-08-31T01:51:09;3.57;;;3.20;;
18983;SDS011;9626;52.552;13.436;2023-08-31T01:53:36;5.60;;;3.10;;
18983;SDS011;9626;52.552;13.436;2023-08-31T01:56:02;3.03;;;2.83;;
18983;SDS011;9626;52.552;13.436;2023-08-31T01:58:28;3.20;;;2.90;;
18983;SDS011;9626;52.552;13.436;2023-08-31T02:00:54;3.20;;;2.90;;
18983;SDS011;9626;52.552;13.436;2023-08-31T02:03:22;3.30;;;3.00;;
18983;SDS011;9626;52.552;13.436;2023-08-31T02:05:48;3.00;;;2.70;;
18983;SDS011;9626;52.552;13.436;2023-08-31T02:08:14;2.30;;;2.10;;
18983;SDS011;9626;52.552;13.436;2023-08-31T02:10:43;2.23;;;2.03;;
18983;SDS011;9626;52.552;13.436;2023-08-31T02:13:10;2.40;;;2.20;;
18983;SDS011;9626;52.552;13.436;2023-08-31T02:15:39;2.40;;;2.20;;
18983;SDS011;9626;52.552;13.436;2023-08-31T02:18:05;2.30;;;2.00;;
18983;SDS011;9626;52.552;13.436;2023-08-31T02:20:33;2.00;;;1.90;;
18983;SDS011;9626;52.552;13.436;2023-08-31T02:22:59;2.87;;;2.10;;
18983;SDS011;9626;52.552;13.436;2023-08-31T02:25:25;2.63;;;2.20;;
18983;SDS011;9626;52.552;13.436;2023-08-31T02:27:54;1.70;;;1.60;;
18983;SDS011;9626;52.552;13.436;2023-08-31T02:30:21;2.87;;;1.90;;
18983;SDS011;9626;52.552;13.436;2023-08-31T02:32:47;3.60;;;2.37;;
18983;SDS011;9626;52.552;13.436;2023-08-31T02:35:13;1.97;;;1.77;;
18983;SDS011;9626;52.552;13.436;2023-08-31T02:37:39;1.73;;;1.63;;
18983;SDS011;9626;52.552;13.436;2023-08-31T02:40:05;1.70;;;1.60;;
18983;SDS011;9626;52.552;13.436;2023-08-31T02:42:32;2.23;;;2.03;;
18983;SDS011;9626;52.552;13.436;2023-08-31T02:44:58;2.60;;;1.80;;
18983;SDS011;9626;52.552;13.436;2023-08-31T02:47:24;2.43;;;2.23;;
18983;SDS011;9626;52.552;13.436;2023-08-31T02:49:50;2.10;;;1.90;;
18983;SDS011;9626;52.552;13.436;2023-08-31T02:52:16;2.50;;;2.17;;
18983;SDS011;9626;52.552;13.436;2023-08-31T02:54:42;1.97;;;1.70;;
18983;SDS011;9626;52.552;13.436;2023-08-31T02:57:08;3.37;;;2.33;;
18983;SDS011;9626;52.552;13.436;2023-08-31T02:59:34;3.03;;;2.57;;
18983;SDS011;9626;52.552;13.436;2023-08-31T03:02:02;3.10;;;2.60;;
18983;SDS011;9626;52.552;13.436;2023-08-31T03:04:28;2.60;;;2.40;;
18983;SDS011;9626;52.552;13.436;2023-08-31T03:06:54;2.80;;;2.60;;
18983;SDS011;9626;52.552;13.436;2023-08-31T03:09:20;4.23;;;2.93;;
18983;SDS011;9626;52.552;13.436;2023-08-31T03:11:46;3.10;;;2.83;;
18983;SDS011;9626;52.552;13.436;2023-08-31T03:14:13;3.57;;;3.27;;
18983;SDS011;9626;52.552;13.436;2023-08-31T03:16:38;4.00;;;3.07;;
18983;SDS011;9626;52.552;13.436;2023-08-31T03:19:04;3.63;;;2.87;;
18983;SDS011;9626;52.552;13.436;2023-08-31T03:21:31;2.90;;;2.70;;
18983;SDS011;9626;52.552;13.436;2023-08-31T03:23:57;2.67;;;2.47;;
18983;SDS011;9626;52.552;13.436;2023-08-31T03:26:23;3.87;;;2.47;;
18983;SDS011;9626;52.552;13.436;2023-08-31T03:28:49;2.67;;;2.43;;
18983;SDS011;9626;52.552;13.436;2023-08-31T03:31:15;2.40;;;2.20;;
18983;SDS011;9626;52.552;13.436;2023-08-31T03:33:41;2.93;;;2.20;;
18983;SDS011;9626;52.552;13.436;2023-08-31T03:36:07;2.90;;;2.40;;
18983;SDS011;9626;52.552;13.436;2023-08-31T03:38:33;3.83;;;2.50;;
18983;SDS011;9626;52.552;13.436;2023-08-31T03:41:06;3.43;;;2.30;;
18983;SDS011;9626;52.552;13.436;2023-08-31T03:43:32;2.80;;;2.50;;
18983;SDS011;9626;52.552;13.436;2023-08-31T03:45:58;2.17;;;1.97;;
18983;SDS011;9626;52.552;13.436;2023-08-31T03:48:26;2.43;;;2.10;;
18983;SDS011;9626;52.552;13.436;2023-08-31T03:50:52;3.07;;;2.27;;
18983;SDS011;9626;52.552;13.436;2023-08-31T03:53:19;3.43;;;2.50;;
18983;SDS011;9626;52.552;13.436;2023-08-31T03:55:45;2.40;;;2.17;;
18983;SDS011;9626;52.552;13.436;2023-08-31T03:58:11;2.57;;;2.30;;
18983;SDS011;9626;52.552;13.436;2023-08-31T04:00:37;3.67;;;2.37;;
18983;SDS011;9626;52.552;13.436;2023-08-31T04:03:04;2.30;;;2.10;;
18983;SDS011;9626;52.552;13.436;2023-08-31T04:05:33;3.00;;;2.30;;
18983;SDS011;9626;52.552;13.436;2023-08-31T04:08:00;3.43;;;3.10;;
18983;SDS011;9626;52.552;13.436;2023-08-31T04:10:26;3.00;;;2.70;;
18983;SDS011;9626;52.552;13.436;2023-08-31T04:12:53;2.90;;;2.70;;
18983;SDS011;9626;52.552;13.436;2023-08-31T04:15:19;4.10;;;3.37;;
18983;SDS011;9626;52.552;13.436;2023-08-31T04:17:45;5.67;;;3.60;;
18983;SDS011;9626;52.552;13.436;2023-08-31T04:20:11;4.77;;;3.80;;
18983;SDS011;9626;52.552;13.436;2023-08-31T04:22:37;6.47;;;3.73;;
18983;SDS011;9626;52.552;13.436;2023-08-31T04:25:04;4.50;;;3.87;;
18983;SDS011;9626;52.552;13.436;2023-08-31T04:27:30;4.40;;;3.77;;
18983;SDS011;9626;52.552;13.436;2023-08-31T04:30:00;4.50;;;3.80;;
18983;SDS011;9626;52.552;13.436;2023-08-31T04:32:26;4.20;;;3.80;;
18983;SDS011;9626;52.552;13.436;2023-08-31T04:34:53;5.13;;;4.63;;
18983;SDS011;9626;52.552;13.436;2023-08-31T04:37:20;4.37;;;3.97;;
18983;SDS011;9626;52.552;13.436;2023-08-31T04:39:47;4.37;;;3.97;;
18983;SDS011;9626;52.552;13.436;2023-08-31T04:42:13;5.23;;;4.73;;
18983;SDS011;9626;52.552;13.436;2023-08-31T04:44:39;6.87;;;5.50;;
18983;SDS011;9626;52.552;13.436;2023-08-31T04:47:05;6.43;;;5.73;;
18983;SDS011;9626;52.552;13.436;2023-08-31T04:49:31;8.33;;;6.47;;
18983;SDS011;9626;52.552;13.436;2023-08-31T04:51:57;6.40;;;5.47;;
18983;SDS011;9626;52.552;13.436;2023-08-31T04:54:23;6.43;;;5.77;;
18983;SDS011;9626;52.552;13.436;2023-08-31T04:56:49;8.67;;;7.27;;
18983;SDS011;9626;52.552;13.436;2023-08-31T04:59:15;9.17;;;6.80;;
18983;SDS011;9626;52.552;13.436;2023-08-31T05:01:41;8.63;;;7.23;;
18983;SDS011;9626;52.552;13.436;2023-08-31T05:04:07;8.63;;;6.73;;
18983;SDS011;9626;52.552;13.436;2023-08-31T05:06:33;8.03;;;6.00;;
18983;SDS011;9626;52.552;13.436;2023-08-31T05:08:59;7.60;;;6.80;;
18983;SDS011;9626;52.552;13.436;2023-08-31T05:11:26;9.63;;;6.73;;
18983;SDS011;9626;52.552;13.436;2023-08-31T05:13:52;11.40;;;7.37;;
18983;SDS011;9626;52.552;13.436;2023-08-31T05:16:18;9.53;;;7.00;;
18983;SDS011;9626;52.552;13.436;2023-08-31T05:18:44;9.20;;;7.17;;
18983;SDS011;9626;52.552;13.436;2023-08-31T05:21:10;7.93;;;6.13;;
18983;SDS011;9626;52.552;13.436;2023-08-31T05:23:36;7.57;;;6.53;;
18983;SDS011;9626;52.552;13.436;2023-08-31T05:26:02;8.53;;;6.90;;
18983;SDS011;9626;52.552;13.436;2023-08-31T05:28:28;9.23;;;7.40;;
18983;SDS011;9626;52.552;13.436;2023-08-31T05:31:01;9.10;;;7.37;;
18983;SDS011;9626;52.552;13.436;2023-08-31T05:33:28;8.10;;;6.80;;
18983;SDS011;9626;52.552;13.436;2023-08-31T05:36:02;8.43;;;6.90;;
18983;SDS011;9626;52.552;13.436;2023-08-31T05:38:31;10.77;;;6.70;;
18983;SDS011;9626;52.552;13.436;2023-08-31T05:41:07;9.00;;;6.23;;
18983;SDS011;9626;52.552;13.436;2023-08-31T05:43:37;8.63;;;7.03;;
18983;SDS011;9626;52.552;13.436;2023-08-31T05:46:06;7.90;;;6.03;;
18983;SDS011;9626;52.552;13.436;2023-08-31T05:48:33;7.47;;;6.60;;
18983;SDS011;9626;52.552;13.436;2023-08-31T05:50:59;11.77;;;6.53;;
18983;SDS011;9626;52.552;13.436;2023-08-31T05:53:25;9.80;;;7.00;;
18983;SDS011;9626;52.552;13.436;2023-08-31T05:55:51;7.13;;;6.30;;
18983;SDS011;9626;52.552;13.436;2023-08-31T05:58:17;8.13;;;6.73;;
18983;SDS011;9626;52.552;13.436;2023-08-31T06:00:43;9.73;;;6.43;;
18983;SDS011;9626;52.552;13.436;2023-08-31T06:03:09;8.17;;;6.10;;
18983;SDS011;9626;52.552;13.436;2023-08-31T06:05:36;8.83;;;6.30;;
18983;SDS011;9626;52.552;13.436;2023-08-31T06:08:02;9.73;;;6.67;;
18983;SDS011;9626;52.552;13.436;2023-08-31T06:10:28;8.47;;;7.33;;
18983;SDS011;9626;52.552;13.436;2023-08-31T06:12:54;7.37;;;6.50;;
18983;SDS011;9626;52.552;13.436;2023-08-31T06:15:20;8.33;;;6.73;;
18983;SDS011;9626;52.552;13.436;2023-08-31T06:17:46;9.23;;;6.27;;
18983;SDS011;9626;52.552;13.436;2023-08-31T06:20:13;6.73;;;5.90;;
18983;SDS011;9626;52.552;13.436;2023-08-31T06:22:39;7.53;;;6.30;;
18983;SDS011;9626;52.552;13.436;2023-08-31T06:25:05;8.53;;;6.43;;
18983;SDS011;9626;52.552;13.436;2023-08-31T06:27:32;7.43;;;6.30;;
18983;SDS011;9626;52.552;13.436;2023-08-31T06:29:58;9.47;;;7.23;;
18983;SDS011;9626;52.552;13.436;2023-08-31T06:32:24;6.70;;;5.27;;
18983;SDS011;9626;52.552;13.436;2023-08-31T06:34:50;8.60;;;6.27;;
18983;SDS011;9626;52.552;13.436;2023-08-31T06:37:16;8.33;;;6.50;;
18983;SDS011;9626;52.552;13.436;2023-08-31T06:39:42;9.63;;;6.47;;
18983;SDS011;9626;52.552;13.436;2023-08-31T06:42:08;7.80;;;6.00;;
18983;SDS011;9626;52.552;13.436;2023-08-31T06:44:34;9.73;;;6.07;;
18983;SDS011;9626;52.552;13.436;2023-08-31T06:47:00;7.20;;;5.33;;
18983;SDS011;9626;52.552;13.436;2023-08-31T06:49:26;7.77;;;5.50;;
18983;SDS011;9626;52.552;13.436;2023-08-31T06:51:53;6.83;;;5.83;;
18983;SDS011;9626;52.552;13.436;2023-08-31T06:54:19;7.17;;;5.80;;
18983;SDS011;9626;52.552;13.436;2023-08-31T06:56:45;6.37;;;5.60;;
18983;SDS011;9626;52.552;13.436;2023-08-31T06:59:11;7.27;;;5.20;;
18983;SDS011;9626;52.552;13.436;2023-08-31T07:01:37;7.07;;;5.57;;
18983;SDS011;9626;52.552;13.436;2023-08-31T07:04:03;7.10;;;5.20;;
18983;SDS011;9626;52.552;13.436;2023-08-31T07:06:30;6.60;;;5.20;;
18983;SDS011;9626;52.552;13.436;2023-08-31T07:08:59;8.67;;;5.40;;
18983;SDS011;9626;52.552;13.436;2023-08-31T07:11:25;6.00;;;5.10;;
18983;SDS011;9626;52.552;13.436;2023-08-31T07:13:51;6.63;;;4.50;;
18983;SDS011;9626;52.552;13.436;2023-08-31T07:16:18;11.63;;;5.97;;
18983;SDS011;9626;52.552;13.436;2023-08-31T07:18:44;9.40;;;5.00;;
18983;SDS011;9626;52.552;13.436;2023-08-31T07:21:10;9.17;;;5.40;;
18983;SDS011;9626;52.552;13.436;2023-08-31T07:23:36;8.63;;;4.70;;
18983;SDS011;9626;52.552;13.436;2023-08-31T07:26:02;6.00;;;4.17;;
18983;SDS011;9626;52.552;13.436;2023-08-31T07:28:30;6.00;;;4.27;;
18983;SDS011;9626;52.552;13.436;2023-08-31T07:31:06;6.07;;;4.17;;
18983;SDS011;9626;52.552;13.436;2023-08-31T07:33:33;8.50;;;4.30;;
18983;SDS011;9626;52.552;13.436;2023-08-31T07:36:02;6.67;;;4.50;;
18983;SDS011;9626;52.552;13.436;2023-08-31T07:38:30;5.47;;;4.03;;
18983;SDS011;9626;52.552;13.436;2023-08-31T07:40:56;5.93;;;3.87;;
18983;SDS011;9626;52.552;13.436;2023-08-31T07:43:23;6.20;;;4.17;;
18983;SDS011;9626;52.552;13.436;2023-08-31T07:45:49;8.73;;;4.00;;
18983;SDS011;9626;52.552;13.436;2023-08-31T07:48:15;7.67;;;3.30;;
18983;SDS011;9626;52.552;13.436;2023-08-31T07:50:41;9.20;;;5.03;;
18983;SDS011;9626;52.552;13.436;2023-08-31T07:53:10;7.33;;;3.70;;
18983;SDS011;9626;52.552;13.436;2023-08-31T07:55:37;6.57;;;3.47;;
18983;SDS011;9626;52.552;13.436;2023-08-31T07:58:03;7.43;;;4.23;;
18983;SDS011;9626;52.552;13.436;2023-08-31T08:00:29;5.20;;;3.10;;
18983;SDS011;9626;52.552;13.436;2023-08-31T08:02:55;4.03;;;2.53;;
18983;SDS011;9626;52.552;13.436;2023-08-31T08:05:21;6.47;;;2.77;;
18983;SDS011;9626;52.552;13.436;2023-08-31T08:07:47;5.50;;;2.60;;
18983;SDS011;9626;52.552;13.436;2023-08-31T08:10:13;12.07;;;3.23;;
18983;SDS011;9626;52.552;13.436;2023-08-31T08:12:40;6.30;;;2.90;;
18983;SDS011;9626;52.552;13.436;2023-08-31T08:15:11;3.67;;;2.53;;
18983;SDS011;9626;52.552;13.436;2023-08-31T08:17:37;4.20;;;2.57;;
18983;SDS011;9626;52.552;13.436;2023-08-31T08:20:05;9.17;;;3.20;;
18983;SDS011;9626;52.552;13.436;2023-08-31T08:22:32;4.93;;;2.67;;
18983;SDS011;9626;52.552;13.436;2023-08-31T08:24:58;3.50;;;2.77;;
18983;SDS011;9626;52.552;13.436;2023-08-31T08:27:24;4.10;;;2.60;;
18983;SDS011;9626;52.552;13.436;2023-08-31T08:29:50;4.00;;;2.40;;
18983;SDS011;9626;52.552;13.436;2023-08-31T08:32:16;4.13;;;2.10;;
18983;SDS011;9626;52.552;13.436;2023-08-31T08:34:42;5.57;;;2.57;;
18983;SDS011;9626;52.552;13.436;2023-08-31T08:37:08;3.40;;;2.00;;
18983;SDS011;9626;52.552;13.436;2023-08-31T08:39:34;4.67;;;2.10;;
18983;SDS011;9626;52.552;13.436;2023-08-31T08:42:00;5.30;;;2.17;;
18983;SDS011;9626;52.552;13.436;2023-08-31T08:44:31;2.70;;;1.80;;
18983;SDS011;9626;52.552;13.436;2023-08-31T08:46:59;6.47;;;2.27;;
18983;SDS011;9626;52.552;13.436;2023-08-31T08:49:26;4.37;;;1.90;;
18983;SDS011;9626;52.552;13.436;2023-08-31T08:51:54;2.43;;;1.63;;
18983;SDS011;9626;52.552;13.436;2023-08-31T08:54:21;6.17;;;1.70;;
18983;SDS011;9626;52.552;13.436;2023-08-31T08:56:48;4.93;;;1.57;;
18983;SDS011;9626;52.552;13.436;2023-08-31T08:59:14;4.43;;;1.20;;
18983;SDS011;9626;52.552;13.436;2023-08-31T09:01:40;5.20;;;1.40;;
18983;SDS011;9626;52.552;13.436;2023-08-31T09:04:06;2.50;;;1.30;;
18983;SDS011;9626;52.552;13.436;2023-08-31T09:06:32;3.73;;;1.33;;
18983;SDS011;9626;52.552;13.436;2023-08-31T09:08:59;2.80;;;1.30;;
18983;SDS011;9626;52.552;13.436;2023-08-31T09:11:25;4.80;;;1.57;;
18983;SDS011;9626;52.552;13.436;2023-08-31T09:13:51;4.13;;;1.50;;
18983;SDS011;9626;52.552;13.436;2023-08-31T09:16:24;4.57;;;1.60;;
18983;SDS011;9626;52.552;13.436;2023-08-31T09:18:57;6.07;;;1.70;;
18983;SDS011;9626;52.552;13.436;2023-08-31T09:21:37;4.87;;;1.77;;
18983;SDS011;9626;52.552;13.436;2023-08-31T09:24:06;3.20;;;1.50;;
18983;SDS011;9626;52.552;13.436;2023-08-31T09:29:14;3.40;;;1.17;;
18983;SDS011;9626;52.552;13.436;2023-08-31T09:31:46;3.07;;;1.47;;
18983;SDS011;9626;52.552;13.436;2023-08-31T09:34:14;7.30;;;1.60;;
18983;SDS011;9626;52.552;13.436;2023-08-31T09:36:41;5.33;;;1.60;;
18983;SDS011;9626;52.552;13.436;2023-08-31T09:39:07;2.90;;;1.20;;
18983;SDS011;9626;52.552;13.436;2023-08-31T09:41:54;3.13;;;1.37;;
18983;SDS011;9626;52.552;13.436;2023-08-31T09:44:21;6.13;;;1.77;;
18983;SDS011;9626;52.552;13.436;2023-08-31T09:46:47;4.17;;;1.73;;
18983;SDS011;9626;52.552;13.436;2023-08-31T09:49:14;3.37;;;1.70;;
18983;SDS011;9626;52.552;13.436;2023-08-31T09:51:45;3.60;;;1.90;;
18983;SDS011;9626;52.552;13.436;2023-08-31T09:54:16;4.17;;;1.40;;
18983;SDS011;9626;52.552;13.436;2023-08-31T09:56:45;2.70;;;1.50;;
18983;SDS011;9626;52.552;13.436;2023-08-31T09:59:13;3.13;;;1.50;;
18983;SDS011;9626;52.552;13.436;2023-08-31T10:01:40;2.30;;;1.40;;
18983;SDS011;9626;52.552;13.436;2023-08-31T10:04:08;12.77;;;1.83;;
18983;SDS011;9626;52.552;13.436;2023-08-31T10:06:40;4.23;;;1.27;;
18983;SDS011;9626;52.552;13.436;2023-08-31T10:09:07;5.67;;;1.20;;
18983;SDS011;9626;52.552;13.436;2023-08-31T10:11:40;5.30;;;1.30;;
18983;SDS011;9626;52.552;13.436;2023-08-31T10:14:09;3.93;;;1.03;;
18983;SDS011;9626;52.552;13.436;2023-08-31T10:16:40;1.17;;;1.07;;
18983;SDS011;9626;52.552;13.436;2023-08-31T10:19:09;5.23;;;1.50;;
18983;SDS011;9626;52.552;13.436;2023-08-31T10:21:35;1.90;;;1.07;;
18983;SDS011;9626;52.552;13.436;2023-08-31T10:24:01;3.43;;;1.50;;
18983;SDS011;9626;52.552;13.436;2023-08-31T10:26:28;5.70;;;1.70;;
18983;SDS011;9626;52.552;13.436;2023-08-31T10:28:55;3.03;;;1.30;;
18983;SDS011;9626;52.552;13.436;2023-08-31T10:31:23;2.17;;;1.30;;
18983;SDS011;9626;52.552;13.436;2023-08-31T10:36:44;4.33;;;1.53;;
18983;SDS011;9626;52.552;13.436;2023-08-31T10:39:14;3.10;;;1.27;;
18983;SDS011;9626;52.552;13.436;2023-08-31T10:41:42;2.60;;;1.10;;
18983;SDS011;9626;52.552;13.436;2023-08-31T10:44:30;1.90;;;0.97;;
18983;SDS011;9626;52.552;13.436;2023-08-31T10:46:59;2.67;;;1.20;;
18983;SDS011;9626;52.552;13.436;2023-08-31T10:49:26;4.17;;;1.53;;
18983;SDS011;9626;52.552;13.436;2023-08-31T10:51:56;3.83;;;1.37;;
18983;SDS011;9626;52.552;13.436;2023-08-31T10:54:24;2.93;;;1.50;;
18983;SDS011;9626;52.552;13.436;2023-08-31T10:59:17;2.50;;;1.63;;
18983;SDS011;9626;52.552;13.436;2023-08-31T11:02:01;6.63;;;2.00;;
18983;SDS011;9626;52.552;13.436;2023-08-31T11:04:30;2.70;;;1.90;;
18983;SDS011;9626;52.552;13.436;2023-08-31T11:09:45;1.97;;;1.50;;
18983;SDS011;9626;52.552;13.436;2023-08-31T11:12:12;2.57;;;1.90;;
18983;SDS011;9626;52.552;13.436;2023-08-31T11:14:39;3.33;;;2.10;;
18983;SDS011;9626;52.552;13.436;2023-08-31T11:17:05;7.10;;;2.40;;
18983;SDS011;9626;52.552;13.436;2023-08-31T11:19:31;4.53;;;2.27;;
18983;SDS011;9626;52.552;13.436;2023-08-31T11:22:01;4.53;;;2.23;;
18983;SDS011;9626;52.552;13.436;2023-08-31T11:24:29;3.80;;;2.47;;
18983;SDS011;9626;52.552;13.436;2023-08-31T11:26:58;3.33;;;2.27;;
18983;SDS011;9626;52.552;13.436;2023-08-31T11:29:25;5.80;;;3.13;;
18983;SDS011;9626;52.552;13.436;2023-08-31T11:31:51;3.63;;;2.27;;
18983;SDS011;9626;52.552;13.436;2023-08-31T11:34:17;3.93;;;2.00;;
18983;SDS011;9626;52.552;13.436;2023-08-31T11:36:45;3.73;;;2.03;;
18983;SDS011;9626;52.552;13.436;2023-08-31T11:39:12;4.37;;;2.10;;
18983;SDS011;9626;52.552;13.436;2023-08-31T11:41:39;4.37;;;2.13;;
18983;SDS011;9626;52.552;13.436;2023-08-31T11:44:09;3.07;;;1.90;;
18983;SDS011;9626;52.552;13.436;2023-08-31T11:46:37;3.93;;;2.40;;
18983;SDS011;9626;52.552;13.436;2023-08-31T11:49:05;6.63;;;2.17;;
18983;SDS011;9626;52.552;13.436;2023-08-31T11:51:33;4.57;;;2.30;;
18983;SDS011;9626;52.552;13.436;2023-08-31T11:54:03;4.53;;;2.50;;
18983;SDS011;9626;52.552;13.436;2023-08-31T11:56:42;4.33;;;2.17;;
18983;SDS011;9626;52.552;13.436;2023-08-31T11:59:14;3.93;;;2.07;;
18983;SDS011;9626;52.552;13.436;2023-08-31T12:01:42;3.60;;;2.00;;
18983;SDS011;9626;52.552;13.436;2023-08-31T12:04:15;4.13;;;1.80;;
18983;SDS011;9626;52.552;13.436;2023-08-31T12:06:51;5.57;;;3.00;;
18983;SDS011;9626;52.552;13.436;2023-08-31T12:09:19;3.97;;;2.13;;
18983;SDS011;9626;52.552;13.436;2023-08-31T12:11:50;3.07;;;2.07;;
18983;SDS011;9626;52.552;13.436;2023-08-31T12:14:21;6.00;;;2.77;;
18983;SDS011;9626;52.552;13.436;2023-08-31T12:16:51;3.93;;;1.80;;
18983;SDS011;9626;52.552;13.436;2023-08-31T12:19:18;4.00;;;2.20;;
18983;SDS011;9626;52.552;13.436;2023-08-31T12:21:44;2.67;;;2.00;;
18983;SDS011;9626;52.552;13.436;2023-08-31T12:24:12;2.17;;;1.60;;
18983;SDS011;9626;52.552;13.436;2023-08-31T12:26:38;2.17;;;1.50;;
18983;SDS011;9626;52.552;13.436;2023-08-31T12:29:05;2.77;;;1.63;;
18983;SDS011;9626;52.552;13.436;2023-08-31T12:31:31;3.13;;;1.60;;
18983;SDS011;9626;52.552;13.436;2023-08-31T12:33:58;4.17;;;2.00;;
18983;SDS011;9626;52.552;13.436;2023-08-31T12:36:25;4.43;;;1.80;;
18983;SDS011;9626;52.552;13.436;2023-08-31T12:38:51;4.07;;;2.73;;
18983;SDS011;9626;52.552;13.436;2023-08-31T12:41:17;6.60;;;2.60;;
18983;SDS011;9626;52.552;13.436;2023-08-31T12:43:45;5.70;;;2.30;;
18983;SDS011;9626;52.552;13.436;2023-08-31T12:46:12;2.63;;;1.73;;
18983;SDS011;9626;52.552;13.436;2023-08-31T12:48:39;4.27;;;1.90;;
18983;SDS011;9626;52.552;13.436;2023-08-31T12:51:05;2.93;;;1.97;;
18983;SDS011;9626;52.552;13.436;2023-08-31T12:53:31;4.93;;;2.00;;
18983;SDS011;9626;52.552;13.436;2023-08-31T12:55:57;5.67;;;2.27;;
18983;SDS011;9626;52.552;13.436;2023-08-31T12:58:23;4.70;;;2.13;;
18983;SDS011;9626;52.552;13.436;2023-08-31T13:00:49;2.60;;;2.10;;
18983;SDS011;9626;52.552;13.436;2023-08-31T13:03:18;1.90;;;1.60;;
18983;SDS011;9626;52.552;13.436;2023-08-31T13:05:45;2.97;;;1.67;;
18983;SDS011;9626;52.552;13.436;2023-08-31T13:08:11;2.87;;;1.60;;
18983;SDS011;9626;52.552;13.436;2023-08-31T13:10:37;3.70;;;1.70;;
18983;SDS011;9626;52.552;13.436;2023-08-31T13:13:03;2.67;;;1.60;;
18983;SDS011;9626;52.552;13.436;2023-08-31T13:15:31;2.77;;;1.40;;
18983;SDS011;9626;52.552;13.436;2023-08-31T13:18:00;4.00;;;1.30;;
18983;SDS011;9626;52.552;13.436;2023-08-31T13:20:26;3.43;;;1.13;;
18983;SDS011;9626;52.552;13.436;2023-08-31T13:22:53;1.63;;;1.10;;
18983;SDS011;9626;52.552;13.436;2023-08-31T13:25:19;2.40;;;1.00;;
18983;SDS011;9626;52.552;13.436;2023-08-31T13:27:45;1.13;;;1.00;;
18983;SDS011;9626;52.552;13.436;2023-08-31T13:30:11;0.90;;;0.90;;
18983;SDS011;9626;52.552;13.436;2023-08-31T13:32:38;4.03;;;1.30;;
18983;SDS011;9626;52.552;13.436;2023-08-31T13:35:04;2.50;;;1.37;;
18983;SDS011;9626;52.552;13.436;2023-08-31T13:37:33;3.27;;;1.30;;
18983;SDS011;9626;52.552;13.436;2023-08-31T13:40:02;2.03;;;1.10;;
18983;SDS011;9626;52.552;13.436;2023-08-31T13:42:34;2.30;;;1.20;;
18983;SDS011;9626;52.552;13.436;2023-08-31T13:45:05;1.83;;;1.13;;
18983;SDS011;9626;52.552;13.436;2023-08-31T13:47:32;2.07;;;1.03;;
18983;SDS011;9626;52.552;13.436;2023-08-31T13:49:58;1.67;;;1.23;;
18983;SDS011;9626;52.552;13.436;2023-08-31T13:52:24;2.27;;;1.10;;
18983;SDS011;9626;52.552;13.436;2023-08-31T13:54:50;1.77;;;1.20;;
18983;SDS011;9626;52.552;13.436;2023-08-31T13:57:16;1.23;;;1.07;;
18983;SDS011;9626;52.552;13.436;2023-08-31T13:59:43;1.63;;;1.00;;
18983;SDS011;9626;52.552;13.436;2023-08-31T14:02:09;2.67;;;1.10;;
18983;SDS011;9626;52.552;13.436;2023-08-31T14:04:35;2.03;;;1.40;;
18983;SDS011;9626;52.552;13.436;2023-08-31T14:07:01;1.97;;;1.10;;
18983;SDS011;9626;52.552;13.436;2023-08-31T14:09:28;1.80;;;1.30;;
18983;SDS011;9626;52.552;13.436;2023-08-31T14:11:54;3.53;;;1.40;;
18983;SDS011;9626;52.552;13.436;2023-08-31T14:14:22;2.27;;;1.20;;
18983;SDS011;9626;52.552;13.436;2023-08-31T14:16:49;2.83;;;1.07;;
18983;SDS011;9626;52.552;13.436;2023-08-31T14:19:15;1.47;;;1.03;;
18983;SDS011;9626;52.552;13.436;2023-08-31T14:21:41;1.73;;;0.90;;
18983;SDS011;9626;52.552;13.436;2023-08-31T14:24:07;1.93;;;1.17;;
18983;SDS011;9626;52.552;13.436;2023-08-31T14:26:33;1.83;;;1.00;;
18983;SDS011;9626;52.552;13.436;2023-08-31T14:28:59;2.30;;;1.10;;
18983;SDS011;9626;52.552;13.436;2023-08-31T14:31:25;2.80;;;1.10;;
18983;SDS011;9626;52.552;13.436;2023-08-31T14:33:51;2.73;;;1.03;;
18983;SDS011;9626;52.552;13.436;2023-08-31T14:36:17;1.20;;;1.07;;
18983;SDS011;9626;52.552;13.436;2023-08-31T14:38:43;1.50;;;0.93;;
18983;SDS011;9626;52.552;13.436;2023-08-31T14:41:11;0.77;;;0.70;;
18983;SDS011;9626;52.552;13.436;2023-08-31T14:43:37;1.70;;;0.83;;
18983;SDS011;9626;52.552;13.436;2023-08-31T14:46:03;1.60;;;0.80;;
18983;SDS011;9626;52.552;13.436;2023-08-31T14:48:30;1.03;;;0.80;;
18983;SDS011;9626;52.552;13.436;2023-08-31T14:50:57;1.77;;;0.77;;
18983;SDS011;9626;52.552;13.436;2023-08-31T14:53:26;1.43;;;0.83;;
18983;SDS011;9626;52.552;13.436;2023-08-31T14:55:53;1.10;;;0.97;;
18983;SDS011;9626;52.552;13.436;2023-08-31T14:58:19;3.87;;;1.00;;
18983;SDS011;9626;52.552;13.436;2023-08-31T15:00:45;2.80;;;1.10;;
18983;SDS011;9626;52.552;13.436;2023-08-31T15:03:11;1.93;;;1.10;;
18983;SDS011;9626;52.552;13.436;2023-08-31T15:05:38;0.90;;;0.90;;
18983;SDS011;9626;52.552;13.436;2023-08-31T15:08:07;1.97;;;1.03;;
18983;SDS011;9626;52.552;13.436;2023-08-31T15:10:33;1.20;;;1.00;;